Terminal Aerodrome Forecast
Issued by NWS Duluth, MN

Home | Current Version | Previous Version | Text Only | Print | Product List | Glossary On
Versions: 1 2 3 4 5 6 7 8 9 10 11 12 13 14 15 16 17 18 19 20 21 22 23 24 25 26 27 28 29 30 31 32
256
FTUS43 KDLH 232205 AAB
TAFDLH
TAF AMD
KDLH 232205Z 2322/2418 25014G20KT P6SM SCT050 BKN090
      TEMPO 2322/2401 3SM TSRA SCT020 BKN030CB
     FM240100 22010KT P6SM VCSH SCT025 BKN050
      TEMPO 2401/2402 6SM TSRA BKN025CB
     FM240700 19002KT P6SM SCT050 SCT090
      TEMPO 2409/2413 2SM BR
     FM241500 16005KT P6SM BKN030=

USA.gov is the U.S. government's official web portal to all federal, state and local government web resources and services.